createdAt,value
2018-01-22T00:00:08.256Z,2.31
2018-01-22T00:01:08.239Z,2.26
2018-01-22T00:02:08.233Z,2.49
2018-01-22T00:03:08.211Z,2.29
2018-01-22T00:04:08.197Z,2.36
2018-01-22T00:05:08.181Z,2.35
2018-01-22T00:06:08.166Z,2.31
2018-01-22T00:07:08.150Z,2.42
2018-01-22T00:08:08.136Z,2.28
2018-01-22T00:09:08.122Z,2.31
2018-01-22T00:10:08.106Z,2.43
2018-01-22T00:11:08.093Z,2.44
2018-01-22T00:12:08.077Z,2.39
2018-01-22T00:13:08.062Z,2.50
2018-01-22T00:14:08.047Z,2.47
2018-01-22T00:15:08.032Z,2.46
2018-01-22T00:16:08.017Z,2.53
2018-01-22T00:17:08.001Z,2.54
2018-01-22T00:18:07.987Z,2.57
2018-01-22T00:19:07.971Z,2.60
2018-01-22T00:20:07.958Z,2.69
2018-01-22T00:21:07.949Z,2.74
2018-01-22T00:22:07.927Z,2.71
2018-01-22T00:23:07.912Z,2.69
2018-01-22T00:24:07.896Z,2.83
2018-01-22T00:25:07.882Z,2.74
2018-01-22T00:26:07.867Z,2.82
2018-01-22T00:27:07.853Z,2.86
2018-01-22T00:28:07.837Z,2.85
2018-01-22T00:29:07.823Z,2.86
2018-01-22T00:30:07.809Z,2.82
2018-01-22T00:31:07.793Z,2.93
2018-01-22T00:32:07.781Z,3.00
2018-01-22T00:33:07.765Z,3.04
2018-01-22T00:34:07.749Z,2.97
2018-01-22T00:35:07.736Z,2.98
2018-01-22T00:36:07.722Z,3.01
2018-01-22T00:37:07.705Z,2.97
2018-01-22T00:38:07.692Z,2.97
2018-01-22T00:39:07.716Z,3.00
2018-01-22T00:40:07.662Z,3.01
2018-01-22T00:41:07.647Z,3.00
2018-01-22T00:42:07.632Z,3.00
2018-01-22T00:43:07.618Z,3.04
2018-01-22T00:44:07.603Z,3.00
2018-01-22T00:45:07.588Z,2.95
2018-01-22T00:46:07.573Z,3.03
2018-01-22T00:47:07.561Z,3.11
2018-01-22T00:48:07.545Z,3.00
2018-01-22T00:49:07.530Z,3.01
2018-01-22T00:50:07.515Z,3.08
2018-01-22T00:51:07.501Z,3.04
2018-01-22T00:52:07.486Z,3.00
2018-01-22T00:53:07.472Z,3.07
2018-01-22T00:54:07.458Z,3.01
2018-01-22T00:55:07.446Z,3.04
2018-01-22T00:56:07.430Z,3.13
2018-01-22T00:57:07.413Z,3.04
2018-01-22T00:58:07.400Z,3.04
2018-01-22T00:59:07.385Z,3.13
2018-01-22T01:00:07.371Z,3.08
2018-01-22T01:01:07.356Z,3.11
2018-01-22T01:02:07.342Z,3.13
2018-01-22T01:03:07.328Z,3.11
2018-01-22T01:04:07.313Z,3.10
2018-01-22T01:05:07.299Z,3.23
2018-01-22T01:06:07.285Z,3.19
2018-01-22T01:07:07.272Z,3.21
2018-01-22T01:08:07.258Z,3.18
2018-01-22T01:09:07.243Z,3.25
2018-01-22T01:10:07.229Z,3.19
2018-01-22T01:11:07.216Z,3.22
2018-01-22T01:12:07.202Z,3.18
2018-01-22T01:13:07.188Z,3.21
2018-01-22T01:14:07.173Z,3.23
2018-01-22T01:15:07.160Z,3.23
2018-01-22T01:16:07.147Z,3.28
2018-01-22T01:17:07.131Z,3.23
2018-01-22T01:18:07.121Z,3.28
2018-01-22T01:19:07.104Z,3.31
2018-01-22T01:20:07.091Z,3.34
2018-01-22T01:21:07.078Z,3.28
2018-01-22T01:22:07.064Z,3.36
2018-01-22T01:23:07.050Z,3.26
2018-01-22T01:24:07.038Z,3.41
2018-01-22T01:25:07.025Z,3.32
2018-01-22T01:26:07.010Z,3.42
2018-01-22T01:27:06.995Z,3.37
2018-01-22T01:28:06.983Z,3.45
2018-01-22T01:29:06.968Z,3.37
2018-01-22T01:30:06.954Z,3.45
2018-01-22T01:31:06.944Z,3.41
2018-01-22T01:32:06.929Z,3.44
2018-01-22T01:33:06.915Z,3.42
2018-01-22T01:34:06.902Z,3.41
2018-01-22T01:35:06.888Z,3.47
2018-01-22T01:36:06.880Z,3.53
2018-01-22T01:37:06.869Z,3.56
2018-01-22T01:38:06.847Z,3.58
2018-01-22T01:39:06.835Z,3.63
2018-01-22T01:40:06.820Z,3.68
2018-01-22T01:41:06.807Z,3.65
2018-01-22T01:42:06.793Z,3.65
2018-01-22T01:43:06.781Z,3.74
2018-01-22T01:44:06.767Z,3.74
2018-01-22T01:45:06.754Z,3.65
2018-01-22T01:46:06.739Z,3.73
2018-01-22T01:47:06.727Z,3.74
2018-01-22T01:48:06.714Z,3.86
2018-01-22T01:49:06.700Z,3.81
2018-01-22T01:50:06.685Z,3.94
2018-01-22T01:51:06.672Z,3.84
2018-01-22T01:52:06.658Z,3.86
2018-01-22T01:53:06.644Z,3.98
2018-01-22T01:54:06.632Z,3.94
2018-01-22T01:55:06.618Z,4.05
2018-01-22T01:56:06.605Z,4.02
2018-01-22T01:57:06.589Z,3.95
2018-01-22T01:58:06.577Z,4.02
2018-01-22T01:59:06.563Z,3.95
2018-01-22T02:00:06.550Z,4.02
2018-01-22T02:01:06.536Z,4.12
2018-01-22T02:02:06.523Z,4.12
2018-01-22T02:03:06.509Z,4.12
2018-01-22T02:04:06.496Z,4.10
2018-01-22T02:05:06.481Z,4.13
2018-01-22T02:06:06.467Z,4.08
2018-01-22T02:07:06.454Z,4.16
2018-01-22T02:08:06.444Z,4.19
2018-01-22T02:09:06.427Z,4.16
2018-01-22T02:10:06.414Z,4.14
2018-01-22T02:11:06.399Z,4.20
2018-01-22T02:12:06.386Z,4.16
2018-01-22T02:13:06.371Z,4.30
2018-01-22T02:14:06.358Z,4.28
2018-01-22T02:15:06.344Z,4.31
2018-01-22T02:16:06.331Z,4.32
2018-01-22T02:17:06.317Z,4.32
2018-01-22T02:18:06.304Z,4.32
2018-01-22T02:19:06.291Z,4.30
2018-01-22T02:20:06.280Z,4.32
2018-01-22T02:21:06.265Z,4.32
2018-01-22T02:22:06.250Z,4.41
2018-01-22T02:23:06.236Z,4.35
2018-01-22T02:24:06.222Z,4.28
2018-01-22T02:25:06.208Z,4.37
2018-01-22T02:26:06.195Z,4.49
2018-01-22T02:27:06.190Z,4.37
2018-01-22T02:28:06.166Z,4.41
2018-01-22T02:29:06.152Z,4.40
2018-01-22T02:30:06.139Z,4.48
2018-01-22T02:31:06.124Z,4.49
2018-01-22T02:32:06.113Z,4.48
2018-01-22T02:33:06.097Z,4.49
2018-01-22T02:34:06.084Z,4.41
2018-01-22T02:35:06.071Z,4.45
2018-01-22T02:36:06.056Z,4.45
2018-01-22T02:37:06.042Z,4.49
2018-01-22T02:38:06.028Z,4.59
2018-01-22T02:39:06.015Z,4.49
2018-01-22T02:40:06.002Z,4.55
2018-01-22T02:41:05.987Z,4.53
2018-01-22T02:42:05.973Z,4.45
2018-01-22T02:43:05.961Z,4.45
2018-01-22T02:44:05.946Z,4.55
2018-01-22T02:45:05.931Z,4.58
2018-01-22T02:46:05.918Z,4.60
2018-01-22T02:47:05.910Z,4.66
2018-01-22T02:49:05.876Z,4.66
2018-01-22T02:50:05.863Z,4.56
2018-01-22T02:51:05.854Z,4.50
2018-01-22T02:52:05.838Z,4.68
2018-01-22T02:53:05.821Z,4.53
2018-01-22T02:54:05.809Z,4.67
2018-01-22T02:55:05.795Z,4.67
2018-01-22T02:56:05.787Z,4.70
2018-01-22T02:57:05.766Z,4.66
2018-01-22T02:58:05.754Z,4.70
2018-01-22T02:59:05.740Z,4.70
2018-01-22T03:00:05.727Z,4.66
2018-01-22T03:01:05.713Z,4.66
2018-01-22T03:02:05.697Z,4.74
2018-01-22T03:03:05.687Z,4.75
2018-01-22T03:04:05.671Z,4.75
2018-01-22T03:05:05.655Z,4.73
2018-01-22T03:06:05.641Z,4.77
2018-01-22T03:07:05.629Z,4.77
2018-01-22T03:08:05.614Z,4.82
2018-01-22T03:09:05.603Z,4.78
2018-01-22T03:10:05.589Z,4.87
2018-01-22T03:11:05.574Z,4.89
2018-01-22T03:12:05.560Z,4.90
2018-01-22T03:13:05.545Z,4.90
2018-01-22T03:14:05.534Z,4.96
2018-01-22T03:15:05.519Z,4.86
2018-01-22T03:16:05.513Z,4.90
2018-01-22T03:17:05.492Z,4.92
2018-01-22T03:18:05.478Z,4.89
2018-01-22T03:19:05.465Z,4.87
2018-01-22T03:20:05.455Z,4.87
2018-01-22T03:21:05.437Z,4.92
2018-01-22T03:22:05.426Z,4.93
2018-01-22T03:23:05.411Z,4.92
2018-01-22T03:24:05.397Z,4.96
2018-01-22T03:25:05.382Z,4.90
2018-01-22T03:26:05.370Z,4.97
2018-01-22T03:27:05.356Z,4.93
2018-01-22T03:28:05.343Z,4.97
2018-01-22T03:29:05.329Z,4.96
2018-01-22T03:30:05.316Z,5.00
2018-01-22T03:31:05.306Z,4.97
2018-01-22T03:32:05.291Z,4.99
2018-01-22T03:33:05.305Z,5.02
2018-01-22T03:34:05.262Z,5.04
2018-01-22T03:35:05.248Z,5.00
2018-01-22T03:36:05.234Z,5.02
2018-01-22T03:37:05.219Z,5.11
2018-01-22T03:38:05.207Z,5.08
2018-01-22T03:39:05.194Z,5.05
2018-01-22T03:40:05.180Z,5.11
2018-01-22T03:41:05.165Z,5.11
2018-01-22T03:42:05.152Z,5.14
2018-01-22T03:43:05.138Z,5.12
2018-01-22T03:44:05.125Z,5.18
2018-01-22T03:45:05.111Z,5.15
2018-01-22T03:46:05.103Z,5.21
2018-01-22T03:47:05.097Z,5.26
2018-01-22T03:48:05.071Z,5.25
2018-01-22T03:49:05.060Z,5.21
2018-01-22T03:50:05.042Z,5.25
2018-01-22T03:51:05.029Z,5.20
2018-01-22T03:52:05.024Z,5.21
2018-01-22T03:53:05.002Z,5.30
2018-01-22T03:54:04.989Z,5.28
2018-01-22T03:55:04.976Z,5.25
2018-01-22T03:56:04.962Z,5.28
2018-01-22T03:57:04.950Z,5.33
2018-01-22T03:58:04.934Z,5.33
2018-01-22T03:59:04.922Z,5.26
2018-01-22T04:00:04.908Z,5.39
2018-01-22T04:01:04.894Z,5.39
2018-01-22T04:02:04.883Z,5.41
2018-01-22T04:03:04.868Z,5.33
2018-01-22T04:04:04.856Z,5.41
2018-01-22T04:05:04.842Z,5.35
2018-01-22T04:06:04.829Z,5.39
2018-01-22T04:07:04.830Z,5.41
2018-01-22T04:08:04.803Z,5.48
2018-01-22T04:09:04.788Z,5.53
2018-01-22T04:10:04.776Z,5.56
2018-01-22T04:11:04.762Z,5.59
2018-01-22T04:12:04.750Z,5.54
2018-01-22T04:13:04.735Z,5.65
2018-01-22T04:14:04.723Z,5.68
2018-01-22T04:15:04.710Z,5.71
2018-01-22T04:16:04.700Z,5.66
2018-01-22T04:17:04.683Z,5.66
2018-01-22T04:18:04.671Z,5.72
2018-01-22T04:19:04.658Z,5.62
2018-01-22T04:20:04.646Z,5.71
2018-01-22T04:21:04.631Z,5.76
2018-01-22T04:22:04.618Z,5.79
2018-01-22T04:23:04.607Z,5.86
2018-01-22T04:24:04.593Z,5.90
2018-01-22T04:25:04.581Z,5.86
2018-01-22T04:26:04.567Z,5.91
2018-01-22T04:27:04.554Z,5.87
2018-01-22T04:28:04.543Z,5.98
2018-01-22T04:29:04.528Z,5.94
2018-01-22T04:30:04.515Z,5.98
2018-01-22T04:31:04.503Z,5.94
2018-01-22T04:32:04.490Z,5.99
2018-01-22T04:33:04.477Z,6.04
2018-01-22T04:34:04.464Z,6.14
2018-01-22T04:35:04.451Z,6.12
2018-01-22T04:36:04.439Z,6.12
2018-01-22T04:37:04.425Z,6.14
2018-01-22T04:38:04.413Z,6.05
2018-01-22T04:39:04.400Z,6.16
2018-01-22T04:40:04.387Z,6.17
2018-01-22T04:41:04.375Z,6.22
2018-01-22T04:42:04.361Z,6.17
2018-01-22T04:43:04.356Z,6.31
2018-01-22T04:44:04.337Z,6.33
2018-01-22T04:45:04.323Z,6.39
2018-01-22T04:46:04.312Z,6.39
2018-01-22T04:47:04.299Z,6.42
2018-01-22T04:48:04.286Z,6.42
2018-01-22T04:49:04.272Z,6.42
2018-01-22T04:50:04.260Z,6.44
2018-01-22T04:51:04.247Z,6.38
2018-01-22T04:52:04.234Z,6.38
2018-01-22T04:53:04.221Z,6.33
2018-01-22T04:54:04.208Z,6.38
2018-01-22T04:55:04.197Z,6.38
2018-01-22T04:56:04.187Z,6.39
2018-01-22T04:57:04.171Z,6.38
2018-01-22T04:58:04.158Z,6.36
2018-01-22T04:59:04.146Z,6.51
2018-01-22T05:00:04.134Z,6.49
2018-01-22T05:01:04.121Z,6.49
2018-01-22T05:02:04.108Z,6.48
2018-01-22T05:03:04.096Z,6.59
2018-01-22T05:04:04.083Z,6.54
2018-01-22T05:05:04.070Z,6.59
2018-01-22T05:06:04.058Z,6.59
2018-01-22T05:07:04.046Z,6.62
2018-01-22T05:08:04.033Z,6.63
2018-01-22T05:09:04.020Z,6.59
2018-01-22T05:10:04.008Z,6.62
2018-01-22T05:11:03.997Z,6.60
2018-01-22T05:12:03.983Z,6.70
2018-01-22T05:13:03.969Z,6.64
2018-01-22T05:14:03.957Z,6.66
2018-01-22T05:15:03.944Z,6.74
2018-01-22T05:16:03.933Z,6.87
2018-01-22T05:17:03.919Z,6.79
2018-01-22T05:18:03.907Z,6.82
2018-01-22T05:19:03.895Z,6.82
2018-01-22T05:20:03.882Z,6.78
2018-01-22T05:21:03.869Z,6.87
2018-01-22T05:22:03.857Z,6.81
2018-01-22T05:23:03.845Z,6.81
2018-01-22T05:24:03.834Z,6.81
2018-01-22T05:25:03.820Z,6.79
2018-01-22T05:26:03.807Z,6.77
2018-01-22T05:27:03.803Z,6.82
2018-01-22T05:28:03.783Z,6.87
2018-01-22T05:29:03.769Z,6.84
2018-01-22T05:30:03.758Z,6.78
2018-01-22T05:31:03.746Z,6.81
2018-01-22T05:32:03.733Z,6.88
2018-01-22T05:33:03.721Z,6.97
2018-01-22T05:34:03.707Z,6.84
2018-01-22T05:35:03.699Z,6.92
2018-01-22T05:36:03.685Z,6.93
2018-01-22T05:37:03.671Z,6.96
2018-01-22T05:38:03.659Z,7.00
2018-01-22T05:39:03.649Z,6.99
2018-01-22T05:40:03.635Z,6.99
2018-01-22T05:41:03.621Z,6.88
2018-01-22T05:42:03.609Z,6.96
2018-01-22T05:43:03.598Z,6.84
2018-01-22T05:44:03.586Z,6.99
2018-01-22T05:45:03.573Z,6.95
2018-01-22T05:46:03.560Z,6.88
2018-01-22T05:47:03.548Z,6.95
2018-01-22T05:48:03.538Z,6.93
2018-01-22T05:49:03.536Z,6.89
2018-01-22T05:50:03.516Z,6.97
2018-01-22T05:51:03.500Z,6.95
2018-01-22T05:52:03.488Z,6.97
2018-01-22T05:53:03.475Z,7.03
2018-01-22T05:54:03.464Z,6.97
2018-01-22T05:55:03.453Z,7.02
2018-01-22T05:56:03.439Z,6.97
2018-01-22T05:57:03.426Z,6.99
2018-01-22T05:58:03.415Z,6.99
2018-01-22T05:59:03.402Z,7.00
2018-01-22T06:00:03.391Z,7.00
2018-01-22T06:01:03.377Z,7.00
2018-01-22T06:02:03.366Z,6.96
2018-01-22T06:03:03.354Z,7.02
2018-01-22T06:04:03.341Z,7.00
2018-01-22T06:05:03.329Z,7.00
2018-01-22T06:06:03.316Z,7.15
2018-01-22T06:07:03.304Z,7.11
2018-01-22T06:08:03.292Z,6.96
2018-01-22T06:09:03.279Z,6.96
2018-01-22T06:10:03.268Z,7.07
2018-01-22T06:11:03.256Z,7.11
2018-01-22T06:12:03.249Z,7.18
2018-01-22T06:13:03.232Z,7.15
2018-01-22T06:14:03.220Z,7.21
2018-01-22T06:15:03.208Z,7.20
2018-01-22T06:16:03.196Z,7.18
2018-01-22T06:17:03.191Z,7.23
2018-01-22T06:18:03.172Z,7.32
2018-01-22T06:19:03.160Z,7.29
2018-01-22T06:20:03.148Z,7.21
2018-01-22T06:21:03.134Z,7.28
2018-01-22T06:22:03.124Z,7.24
2018-01-22T06:23:03.111Z,7.33
2018-01-22T06:24:03.100Z,7.36
2018-01-22T06:25:03.090Z,7.33
2018-01-22T06:26:03.076Z,7.28
2018-01-22T06:27:03.063Z,7.28
2018-01-22T06:28:03.052Z,7.33
2018-01-22T06:29:03.040Z,7.36
2018-01-22T06:30:03.029Z,7.39
2018-01-22T06:31:03.016Z,7.42
2018-01-22T06:32:03.007Z,7.40
2018-01-22T06:33:02.993Z,7.47
2018-01-22T06:34:02.979Z,7.43
2018-01-22T06:35:02.968Z,7.35
2018-01-22T06:36:02.957Z,7.43
2018-01-22T06:37:02.947Z,7.42
2018-01-22T06:38:02.932Z,7.47
2018-01-22T06:39:02.920Z,7.45
2018-01-22T06:40:02.908Z,7.51
2018-01-22T06:41:02.897Z,7.43
2018-01-22T06:42:02.887Z,7.56
2018-01-22T06:43:02.873Z,7.47
2018-01-22T06:44:02.873Z,7.51
2018-01-22T06:45:02.850Z,7.40
2018-01-22T06:46:02.838Z,7.54
2018-01-22T06:47:02.825Z,7.56
2018-01-22T06:48:02.814Z,7.57
2018-01-22T06:49:02.801Z,7.60
2018-01-22T06:50:02.789Z,7.53
2018-01-22T06:51:02.779Z,7.47
2018-01-22T06:52:02.770Z,7.53
2018-01-22T06:53:02.755Z,7.53
2018-01-22T06:54:02.744Z,7.57
2018-01-22T06:55:02.731Z,7.51
2018-01-22T06:56:02.721Z,7.51
2018-01-22T06:57:02.708Z,7.57
2018-01-22T06:58:02.697Z,7.56
2018-01-22T06:59:02.684Z,7.56
2018-01-22T07:00:02.674Z,7.54
2018-01-22T07:01:02.661Z,7.51
2018-01-22T07:02:02.649Z,7.54
2018-01-22T07:03:02.638Z,7.48
2018-01-22T07:04:02.628Z,7.54
2018-01-22T07:05:02.615Z,7.54
2018-01-22T07:06:02.606Z,7.51
2018-01-22T07:07:02.595Z,7.54
2018-01-22T07:08:02.581Z,7.57
2018-01-22T07:09:02.569Z,7.63
2018-01-22T07:10:02.557Z,7.53
2018-01-22T07:11:02.546Z,7.70
2018-01-22T07:12:02.534Z,7.54
2018-01-22T07:13:02.522Z,7.51
2018-01-22T07:14:02.511Z,7.61
2018-01-22T07:15:02.499Z,7.77
2018-01-22T07:16:02.489Z,7.67
2018-01-22T07:17:02.475Z,7.77
2018-01-22T07:18:02.464Z,7.83
2018-01-22T07:19:02.453Z,7.79
2018-01-22T07:20:02.442Z,7.79
2018-01-22T07:21:02.428Z,7.82
2018-01-22T07:22:02.422Z,7.72
2018-01-22T07:23:02.410Z,7.69
2018-01-22T07:24:02.395Z,7.79
2018-01-22T07:25:02.385Z,7.85
2018-01-22T07:26:02.372Z,7.87
2018-01-22T07:27:02.359Z,7.82
2018-01-22T07:28:02.348Z,7.87
2018-01-22T07:29:02.334Z,7.88
2018-01-22T07:30:02.323Z,7.79
2018-01-22T07:31:02.312Z,7.87
2018-01-22T07:32:02.300Z,7.76
2018-01-22T07:33:02.287Z,7.79
2018-01-22T07:34:02.276Z,7.79
2018-01-22T07:35:02.265Z,7.83
2018-01-22T07:36:02.253Z,7.97
2018-01-22T07:37:02.242Z,7.90
2018-01-22T07:38:02.229Z,7.88
2018-01-22T07:39:02.219Z,7.88
2018-01-22T07:40:02.207Z,7.82
2018-01-22T07:41:02.195Z,7.83
2018-01-22T07:42:02.184Z,7.88
2018-01-22T07:43:02.173Z,7.79
2018-01-22T07:44:02.160Z,7.88
2018-01-22T07:45:02.154Z,7.83
2018-01-22T07:46:02.136Z,7.93
2018-01-22T07:47:02.126Z,7.85
2018-01-22T07:48:02.114Z,7.82
2018-01-22T07:49:02.102Z,7.85
2018-01-22T07:50:02.091Z,7.82
2018-01-22T07:51:02.079Z,7.88
2018-01-22T07:52:02.068Z,7.87
2018-01-22T07:53:02.060Z,7.87
2018-01-22T07:54:02.047Z,7.88
2018-01-22T07:55:02.033Z,7.87
2018-01-22T07:56:02.022Z,7.79
2018-01-22T07:57:02.009Z,7.83
2018-01-22T07:58:01.998Z,7.83
2018-01-22T07:59:01.986Z,7.80
2018-01-22T08:00:01.975Z,7.83
2018-01-22T08:01:01.963Z,7.85
2018-01-22T08:02:01.951Z,7.85
2018-01-22T08:03:01.939Z,7.87
2018-01-22T08:04:01.929Z,7.80
2018-01-22T08:05:01.916Z,7.77
2018-01-22T08:06:01.905Z,7.75
2018-01-22T08:07:01.898Z,7.79
2018-01-22T08:08:01.885Z,7.82
2018-01-22T08:09:01.871Z,7.75
2018-01-22T08:10:01.858Z,7.76
2018-01-22T08:11:01.846Z,7.70
2018-01-22T08:12:01.836Z,7.77
2018-01-22T08:13:01.824Z,7.82
2018-01-22T08:14:01.812Z,7.76
2018-01-22T08:15:01.801Z,7.72
2018-01-22T08:16:01.790Z,7.82
2018-01-22T08:17:01.778Z,7.76
2018-01-22T08:18:01.765Z,7.66
2018-01-22T08:19:01.754Z,7.67
2018-01-22T08:20:01.742Z,7.63
2018-01-22T08:21:01.730Z,7.66
2018-01-22T08:22:01.722Z,7.63
2018-01-22T08:23:01.707Z,7.69
2018-01-22T08:24:01.696Z,7.73
2018-01-22T08:25:01.684Z,7.80
2018-01-22T08:26:01.673Z,7.82
2018-01-22T08:27:01.661Z,7.83
2018-01-22T08:28:01.650Z,7.67
2018-01-22T08:29:01.637Z,7.79
2018-01-22T08:30:01.626Z,7.80
2018-01-22T08:31:01.616Z,7.87
2018-01-22T08:32:01.605Z,7.88
2018-01-22T08:33:01.592Z,7.85
2018-01-22T08:34:01.580Z,7.93
2018-01-22T08:35:01.589Z,7.94
2018-01-22T08:36:01.559Z,7.91
2018-01-22T08:37:01.549Z,7.94
2018-01-22T08:38:01.535Z,7.95
2018-01-22T08:39:01.524Z,7.97
2018-01-22T08:40:01.514Z,7.97
2018-01-22T08:41:01.502Z,7.97
2018-01-22T08:42:01.518Z,7.97
2018-01-22T08:43:01.479Z,7.97
2018-01-22T08:44:01.468Z,8.08
2018-01-22T08:45:01.455Z,8.03
2018-01-22T08:46:01.445Z,8.08
2018-01-22T08:47:01.435Z,7.97
2018-01-22T08:48:01.424Z,8.01
2018-01-22T08:49:01.413Z,8.05
2018-01-22T08:50:01.401Z,8.05
2018-01-22T08:51:01.448Z,8.08
2018-01-22T08:52:01.380Z,8.06
2018-01-22T08:53:01.368Z,8.06
2018-01-22T08:54:01.357Z,8.13
2018-01-22T08:55:01.347Z,8.05
2018-01-22T08:56:01.336Z,8.15
2018-01-22T08:57:01.325Z,8.13
2018-01-22T08:58:01.313Z,8.16
2018-01-22T08:59:01.302Z,8.12
2018-01-22T09:00:01.292Z,8.12
2018-01-22T09:01:01.280Z,8.16
2018-01-22T09:02:01.269Z,8.13
2018-01-22T09:03:01.273Z,8.10
2018-01-22T09:04:01.249Z,8.12
2018-01-22T09:05:01.237Z,8.18
2018-01-22T09:06:01.231Z,8.10
2018-01-22T09:07:01.215Z,8.10
2018-01-22T09:08:01.205Z,8.18
2018-01-22T09:09:01.192Z,8.15
2018-01-22T09:10:01.182Z,8.09
2018-01-22T09:11:01.172Z,8.15
2018-01-22T09:12:01.161Z,8.24
2018-01-22T09:13:01.150Z,8.18
2018-01-22T09:14:01.178Z,8.24
2018-01-22T09:15:01.128Z,8.13
2018-01-22T09:16:01.119Z,8.18
2018-01-22T09:17:01.106Z,8.19
2018-01-22T09:18:01.096Z,8.24
2018-01-22T09:19:01.088Z,8.12
2018-01-22T09:20:01.083Z,8.16
2018-01-22T09:21:01.063Z,8.16
2018-01-22T09:22:01.107Z,8.19
2018-01-22T09:23:01.042Z,8.23
2018-01-22T09:24:01.031Z,8.10
2018-01-22T09:25:01.019Z,8.09
2018-01-22T09:26:01.009Z,8.13
2018-01-22T09:27:00.998Z,8.13
2018-01-22T09:28:00.989Z,8.19
2018-01-22T09:29:00.978Z,8.20
2018-01-22T09:30:01.021Z,8.15
2018-01-22T09:31:00.955Z,8.24
2018-01-22T09:32:00.943Z,8.19
2018-01-22T09:33:00.933Z,8.24
2018-01-22T09:34:00.930Z,8.23
2018-01-22T09:35:00.912Z,8.26
2018-01-22T09:36:00.901Z,8.15
2018-01-22T09:37:00.891Z,8.18
2018-01-22T09:38:00.878Z,8.34
2018-01-22T09:39:00.867Z,8.26
2018-01-22T09:40:00.857Z,8.27
2018-01-22T09:41:00.853Z,8.33
2018-01-22T09:42:00.835Z,8.28
2018-01-22T09:43:00.826Z,8.26
2018-01-22T09:44:00.814Z,8.28
2018-01-22T09:45:00.804Z,8.27
2018-01-22T09:46:00.792Z,8.30
2018-01-22T09:47:00.782Z,8.41
2018-01-22T09:48:00.772Z,8.36
2018-01-22T09:49:00.803Z,8.45
2018-01-22T09:50:00.752Z,8.38
2018-01-22T09:51:00.740Z,8.44
2018-01-22T09:52:00.731Z,8.49
2018-01-22T09:53:00.720Z,8.42
2018-01-22T09:54:00.710Z,8.34
2018-01-22T09:55:00.699Z,8.36
2018-01-22T09:56:00.689Z,8.33
2018-01-22T09:57:00.677Z,8.27
2018-01-22T09:58:00.668Z,8.28
2018-01-22T09:59:00.665Z,8.30
2018-01-22T10:00:00.647Z,8.24
2018-01-22T10:01:00.636Z,8.30
2018-01-22T10:02:00.626Z,8.28
2018-01-22T10:03:00.615Z,8.31
2018-01-22T10:04:00.605Z,8.36
2018-01-22T10:05:00.593Z,8.28
2018-01-22T10:06:00.583Z,8.28
2018-01-22T10:07:00.573Z,8.31
2018-01-22T10:08:00.562Z,8.24
2018-01-22T10:09:00.586Z,8.27
2018-01-22T10:10:00.540Z,8.30
2018-01-22T10:11:00.530Z,8.30
2018-01-22T10:12:00.521Z,8.34
2018-01-22T10:13:00.508Z,8.27
2018-01-22T10:14:00.517Z,8.37
2018-01-22T10:15:00.510Z,8.37
2018-01-22T10:16:00.479Z,8.38
2018-01-22T10:17:00.466Z,8.41
2018-01-22T10:18:00.456Z,8.41
2018-01-22T10:19:00.445Z,8.41
2018-01-22T10:20:00.436Z,8.42
2018-01-22T10:21:00.426Z,8.46
2018-01-22T10:22:00.414Z,8.46
2018-01-22T10:23:00.404Z,8.42
2018-01-22T10:24:00.419Z,8.48
2018-01-22T10:25:00.383Z,8.38
2018-01-22T10:26:00.374Z,8.44
2018-01-22T10:27:00.363Z,8.37
2018-01-22T10:28:00.353Z,8.36
2018-01-22T10:29:00.344Z,8.37
2018-01-22T10:30:00.332Z,8.33
2018-01-22T10:31:00.321Z,8.33
2018-01-22T10:32:00.312Z,8.34
2018-01-22T10:33:00.300Z,8.41
2018-01-22T10:34:00.290Z,8.44
2018-01-22T10:35:00.280Z,8.46
2018-01-22T10:36:00.270Z,8.38
2018-01-22T10:37:00.259Z,8.46
2018-01-22T10:38:00.248Z,8.49
2018-01-22T10:39:00.239Z,8.42
2018-01-22T10:40:00.229Z,8.45
2018-01-22T10:41:00.217Z,8.42
2018-01-22T10:42:00.208Z,8.44
2018-01-22T10:43:00.198Z,8.41
2018-01-22T10:44:00.188Z,8.44
2018-01-22T10:45:00.176Z,8.37
2018-01-22T10:46:00.167Z,8.38
2018-01-22T10:47:00.157Z,8.28
2018-01-22T10:48:00.146Z,8.36
2018-01-22T10:49:00.135Z,8.44
2018-01-22T10:50:00.134Z,8.48
2018-01-22T10:51:00.116Z,8.42
2018-01-22T10:52:00.107Z,8.53
2018-01-22T10:53:00.095Z,8.51
2018-01-22T10:54:00.085Z,8.60
2018-01-22T10:55:00.076Z,8.55
2018-01-22T10:56:00.066Z,8.48
2018-01-22T10:57:00.055Z,8.48
2018-01-22T10:58:00.046Z,8.58
2018-01-22T10:59:00.037Z,8.52
2018-01-22T11:00:00.064Z,8.52
2018-01-22T11:01:00.031Z,8.60
2018-01-22T11:02:00.010Z,8.55
2018-01-22T11:02:59.996Z,8.53
2018-01-22T11:03:59.987Z,8.58
2018-01-22T11:04:59.976Z,8.51
2018-01-22T11:05:59.966Z,8.60
2018-01-22T11:06:59.957Z,8.56
2018-01-22T11:07:59.947Z,8.55
2018-01-22T11:08:59.937Z,8.55
2018-01-22T11:09:59.928Z,8.53
2018-01-22T11:10:59.918Z,8.58
2018-01-22T11:11:59.908Z,8.55
2018-01-22T11:12:59.898Z,8.61
2018-01-22T11:13:59.889Z,8.55
2018-01-22T11:14:59.879Z,8.52
2018-01-22T11:15:59.870Z,8.58
2018-01-22T11:16:59.860Z,8.58
2018-01-22T11:17:59.850Z,8.61
2018-01-22T11:18:59.848Z,8.66
2018-01-22T11:19:59.831Z,8.60
2018-01-22T11:20:59.820Z,8.58
2018-01-22T11:21:59.811Z,8.60
2018-01-22T11:22:59.803Z,8.63
2018-01-22T11:23:59.792Z,8.56
2018-01-22T11:24:59.783Z,8.61
2018-01-22T11:25:59.772Z,8.63
2018-01-22T11:26:59.764Z,8.64
2018-01-22T11:27:59.754Z,8.67
2018-01-22T11:28:59.746Z,8.63
2018-01-22T11:29:59.735Z,8.70
2018-01-22T11:30:59.725Z,8.71
2018-01-22T11:31:59.715Z,8.67
2018-01-22T11:32:59.705Z,8.64
2018-01-22T11:33:59.695Z,8.63
2018-01-22T11:34:59.685Z,8.64
2018-01-22T11:35:59.677Z,8.53
2018-01-22T11:36:59.665Z,8.64
2018-01-22T11:37:59.657Z,8.51
2018-01-22T11:38:59.646Z,8.51
2018-01-22T11:39:59.637Z,8.58
2018-01-22T11:40:59.626Z,8.56
2018-01-22T11:41:59.618Z,8.58
2018-01-22T11:42:59.607Z,8.53
2018-01-22T11:43:59.598Z,8.51
2018-01-22T11:44:59.587Z,8.52
2018-01-22T11:45:59.577Z,8.42
2018-01-22T11:46:59.567Z,8.38
2018-01-22T11:47:59.559Z,8.34
2018-01-22T11:48:59.547Z,8.28
2018-01-22T11:49:59.544Z,8.28
2018-01-22T11:50:59.527Z,8.30
2018-01-22T11:51:59.523Z,8.33
2018-01-22T11:52:59.506Z,8.28
2018-01-22T11:53:59.496Z,8.26
2018-01-22T11:54:59.486Z,8.34
2018-01-22T11:55:59.526Z,8.34
2018-01-22T11:56:59.468Z,8.28
2018-01-22T11:57:59.455Z,8.37
2018-01-22T11:58:59.444Z,8.27
2018-01-22T11:59:59.435Z,8.27
2018-01-22T12:00:59.423Z,8.33
2018-01-22T12:01:59.415Z,8.38
2018-01-22T12:02:59.404Z,8.41
2018-01-22T12:03:59.392Z,8.31
2018-01-22T12:04:59.383Z,8.41
2018-01-22T12:05:59.372Z,8.36
2018-01-22T12:06:59.362Z,8.38
2018-01-22T12:07:59.352Z,8.52
2018-01-22T12:08:59.352Z,8.48
2018-01-22T12:09:59.333Z,8.53
2018-01-22T12:10:59.322Z,8.55
2018-01-22T12:11:59.312Z,8.53
2018-01-22T12:12:59.301Z,8.58
2018-01-22T12:13:59.291Z,8.52
2018-01-22T12:14:59.281Z,8.49
2018-01-22T12:15:59.272Z,8.53
2018-01-22T12:16:59.261Z,8.41
2018-01-22T12:17:59.251Z,8.44
2018-01-22T12:18:59.241Z,8.42
2018-01-22T12:19:59.231Z,8.36
2018-01-22T12:20:59.219Z,8.37
2018-01-22T12:21:59.209Z,8.41
2018-01-22T12:22:59.199Z,8.36
2018-01-22T12:23:59.190Z,8.45
2018-01-22T12:24:59.187Z,8.37
2018-01-22T12:25:59.169Z,8.49
2018-01-22T12:26:59.159Z,8.42
2018-01-22T12:27:59.149Z,8.45
2018-01-22T12:28:59.137Z,8.52
2018-01-22T12:29:59.128Z,8.51
2018-01-22T12:30:59.118Z,8.55
2018-01-22T12:31:59.110Z,8.53
2018-01-22T12:32:59.097Z,8.51
2018-01-22T12:33:59.087Z,8.56
2018-01-22T12:34:59.078Z,8.55
2018-01-22T12:35:59.068Z,8.56
2018-01-22T12:36:59.057Z,8.55
2018-01-22T12:37:59.048Z,8.58
2018-01-22T12:38:59.038Z,8.56
2018-01-22T12:39:59.029Z,8.55
2018-01-22T12:40:59.017Z,8.56
2018-01-22T12:41:59.007Z,8.55
2018-01-22T12:42:58.998Z,8.52
2018-01-22T12:43:58.988Z,8.55
2018-01-22T12:44:58.977Z,8.60
2018-01-22T12:45:58.969Z,8.58
2018-01-22T12:46:58.958Z,8.63
2018-01-22T12:47:58.949Z,8.63
2018-01-22T12:48:58.937Z,8.64
2018-01-22T12:49:58.928Z,8.60
2018-01-22T12:50:58.920Z,8.61
2018-01-22T12:51:58.909Z,8.78
2018-01-22T12:52:58.898Z,8.67
2018-01-22T12:53:58.889Z,8.67
2018-01-22T12:54:58.881Z,8.64
2018-01-22T12:55:58.869Z,8.63
2018-01-22T12:56:58.867Z,8.63
2018-01-22T12:57:58.849Z,8.58
2018-01-22T12:58:58.840Z,8.52
2018-01-22T12:59:58.829Z,8.53
2018-01-22T13:00:58.820Z,8.53
2018-01-22T13:01:58.810Z,8.48
2018-01-22T13:02:58.801Z,8.51
2018-01-22T13:03:58.797Z,8.48
2018-01-22T13:04:58.779Z,8.38
2018-01-22T13:05:58.770Z,8.38
2018-01-22T13:06:58.761Z,8.42
2018-01-22T13:07:58.751Z,8.33
2018-01-22T13:08:58.742Z,8.31
2018-01-22T13:09:58.730Z,8.30
2018-01-22T13:10:58.719Z,8.30
2018-01-22T13:11:58.710Z,8.26
2018-01-22T13:12:58.699Z,8.36
2018-01-22T13:13:58.689Z,8.33
2018-01-22T13:14:58.678Z,8.27
2018-01-22T13:15:58.669Z,8.30
2018-01-22T13:16:58.658Z,8.24
2018-01-22T13:17:58.647Z,8.36
2018-01-22T13:18:58.637Z,8.41